Aviation Digital Data Service (ADDS)

Output produced by TAFs form (0843 UTC 21 October 2014)
found at http://aviationweather.gov/adds/tafs/
 
KMAF 210535Z 2106/2206 12011KT P6SM SCT040 BKN130 
     FM211200 13008KT P6SM BKN025